createdAt,value
2019-02-07T00:00:25.263Z,20.78
2019-02-07T00:01:25.284Z,20.61
2019-02-07T00:02:25.278Z,20.69
2019-02-07T00:03:25.234Z,20.68
2019-02-07T00:04:25.218Z,20.66
2019-02-07T00:05:25.222Z,20.64
2019-02-07T00:06:25.195Z,20.60
2019-02-07T00:07:25.203Z,20.68
2019-02-07T00:08:25.199Z,20.61
2019-02-07T00:09:25.182Z,20.61
2019-02-07T00:10:25.186Z,20.71
2019-02-07T00:11:25.164Z,20.78
2019-02-07T00:12:25.192Z,20.71
2019-02-07T00:13:25.144Z,20.73
2019-02-07T00:14:25.117Z,20.76
2019-02-07T00:15:25.116Z,20.76
2019-02-07T00:16:25.098Z,20.79
2019-02-07T00:17:25.084Z,20.83
2019-02-07T00:18:25.062Z,20.82
2019-02-07T00:19:25.067Z,20.78
2019-02-07T00:20:25.055Z,20.81
2019-02-07T00:21:25.064Z,20.90
2019-02-07T00:22:25.043Z,20.90
2019-02-07T00:23:25.002Z,20.90
2019-02-07T00:24:24.996Z,20.93
2019-02-07T00:25:25.001Z,20.83
2019-02-07T00:26:24.985Z,20.96
2019-02-07T00:27:24.962Z,20.90
2019-02-07T00:28:24.948Z,20.91
2019-02-07T00:29:24.934Z,20.87
2019-02-07T00:30:24.996Z,21.00
2019-02-07T00:31:24.921Z,20.83
2019-02-07T00:32:24.913Z,20.90
2019-02-07T00:33:24.895Z,20.85
2019-02-07T00:34:24.919Z,20.93
2019-02-07T00:35:24.909Z,20.90
2019-02-07T00:36:24.871Z,20.94
2019-02-07T00:37:24.871Z,20.91
2019-02-07T00:38:24.839Z,20.93
2019-02-07T00:39:24.832Z,20.88
2019-02-07T00:40:24.825Z,20.90
2019-02-07T00:41:24.803Z,20.88
2019-02-07T00:42:24.789Z,20.90
2019-02-07T00:43:24.779Z,20.91
2019-02-07T00:44:24.778Z,20.87
2019-02-07T00:45:24.775Z,20.85
2019-02-07T00:46:24.745Z,20.85
2019-02-07T00:47:24.734Z,20.81
2019-02-07T00:48:24.724Z,20.79
2019-02-07T00:49:24.717Z,20.76
2019-02-07T00:50:24.740Z,20.82
2019-02-07T00:51:24.691Z,20.78
2019-02-07T00:52:24.679Z,20.71
2019-02-07T00:53:24.672Z,20.75
2019-02-07T00:54:24.666Z,20.73
2019-02-07T00:55:24.653Z,20.72
2019-02-07T00:56:24.647Z,20.66
2019-02-07T00:57:24.626Z,20.60
2019-02-07T00:58:24.613Z,20.66
2019-02-07T00:59:24.598Z,20.66
2019-02-07T01:00:24.621Z,20.60
2019-02-07T01:01:24.635Z,20.69
2019-02-07T01:02:24.567Z,20.64
2019-02-07T01:03:24.554Z,20.66
2019-02-07T01:04:24.546Z,20.63
2019-02-07T01:05:24.556Z,20.58
2019-02-07T01:06:24.536Z,20.57
2019-02-07T01:07:24.517Z,20.58
2019-02-07T01:08:24.512Z,20.58
2019-02-07T01:09:24.544Z,20.58
2019-02-07T01:10:24.493Z,20.54
2019-02-07T01:11:24.486Z,20.58
2019-02-07T01:12:24.459Z,20.63
2019-02-07T01:13:24.452Z,20.46
2019-02-07T01:14:24.431Z,20.61
2019-02-07T01:15:24.423Z,20.61
2019-02-07T01:16:24.435Z,20.58
2019-02-07T01:17:24.412Z,20.64
2019-02-07T01:18:24.386Z,20.58
2019-02-07T01:19:24.385Z,20.63
2019-02-07T01:20:24.368Z,20.68
2019-02-07T01:21:24.388Z,20.61
2019-02-07T01:22:24.342Z,20.64
2019-02-07T01:23:24.366Z,20.66
2019-02-07T01:24:24.322Z,20.68
2019-02-07T01:25:24.319Z,20.66
2019-02-07T01:26:24.313Z,20.64
2019-02-07T01:27:24.286Z,20.72
2019-02-07T01:28:24.273Z,20.73
2019-02-07T01:29:24.273Z,20.71
2019-02-07T01:30:24.294Z,20.73
2019-02-07T01:31:24.260Z,20.71
2019-02-07T01:32:24.230Z,20.83
2019-02-07T01:33:24.227Z,20.83
2019-02-07T01:34:24.219Z,20.75
2019-02-07T01:35:24.194Z,20.78
2019-02-07T01:36:24.203Z,20.81
2019-02-07T01:37:24.186Z,20.76
2019-02-07T01:38:24.167Z,20.78
2019-02-07T01:39:24.151Z,20.79
2019-02-07T01:40:24.145Z,20.78
2019-02-07T01:41:24.199Z,20.81
2019-02-07T01:42:24.136Z,20.79
2019-02-07T01:43:24.151Z,20.78
2019-02-07T01:44:24.120Z,20.76
2019-02-07T01:45:24.151Z,20.79
2019-02-07T01:46:24.133Z,20.85
2019-02-07T01:47:24.122Z,20.73
2019-02-07T01:48:24.089Z,20.76
2019-02-07T01:49:24.906Z,20.81
2019-02-07T01:50:24.059Z,20.76
2019-02-07T01:51:24.021Z,20.75
2019-02-07T01:52:24.025Z,20.76
2019-02-07T01:53:23.995Z,20.78
2019-02-07T01:54:24.049Z,20.69
2019-02-07T01:55:23.978Z,20.69
2019-02-07T01:56:23.961Z,20.73
2019-02-07T01:57:23.969Z,20.63
2019-02-07T01:58:23.939Z,20.66
2019-02-07T01:59:23.927Z,20.64
2019-02-07T02:00:23.919Z,20.66
2019-02-07T02:01:23.910Z,20.64
2019-02-07T02:02:23.935Z,20.60
2019-02-07T02:03:23.886Z,20.71
2019-02-07T02:04:23.871Z,20.60
2019-02-07T02:05:23.859Z,20.63
2019-02-07T02:06:23.856Z,20.56
2019-02-07T02:07:23.867Z,20.58
2019-02-07T02:08:23.829Z,20.53
2019-02-07T02:09:23.820Z,20.42
2019-02-07T02:10:23.807Z,20.50
2019-02-07T02:11:23.793Z,20.56
2019-02-07T02:12:23.797Z,20.61
2019-02-07T02:13:23.780Z,20.51
2019-02-07T02:14:23.766Z,20.44
2019-02-07T02:15:25.083Z,20.42
2019-02-07T02:16:24.217Z,20.42
2019-02-07T02:17:23.740Z,20.46
2019-02-07T02:18:23.717Z,20.44
2019-02-07T02:19:23.761Z,20.41
2019-02-07T02:20:23.761Z,20.50
2019-02-07T02:21:23.717Z,20.44
2019-02-07T02:22:23.710Z,20.44
2019-02-07T02:23:23.677Z,20.44
2019-02-07T02:24:23.709Z,20.41
2019-02-07T02:25:23.633Z,20.46
2019-02-07T02:26:23.634Z,20.57
2019-02-07T02:27:23.696Z,20.44
2019-02-07T02:28:23.612Z,20.48
2019-02-07T02:29:23.587Z,20.48
2019-02-07T02:30:23.699Z,20.54
2019-02-07T02:31:23.583Z,20.64
2019-02-07T02:32:23.600Z,20.57
2019-02-07T02:33:23.584Z,20.58
2019-02-07T02:34:23.542Z,20.61
2019-02-07T02:35:23.541Z,20.68
2019-02-07T02:36:23.535Z,20.66
2019-02-07T02:37:23.525Z,20.66
2019-02-07T02:38:23.511Z,20.64
2019-02-07T02:39:23.480Z,20.63
2019-02-07T02:40:23.493Z,20.61
2019-02-07T02:41:23.472Z,20.64
2019-02-07T02:42:23.445Z,20.64
2019-02-07T02:43:23.452Z,20.63
2019-02-07T02:44:23.420Z,20.64
2019-02-07T02:45:23.418Z,20.63
2019-02-07T02:46:23.417Z,20.66
2019-02-07T02:47:23.386Z,20.66
2019-02-07T02:48:23.395Z,20.63
2019-02-07T02:49:23.360Z,20.71
2019-02-07T02:50:23.352Z,20.64
2019-02-07T02:51:23.340Z,20.68
2019-02-07T02:52:23.347Z,20.66
2019-02-07T02:53:23.366Z,20.68
2019-02-07T02:54:23.309Z,20.66
2019-02-07T02:55:23.328Z,20.64
2019-02-07T02:56:23.296Z,20.66
2019-02-07T02:57:23.296Z,20.58
2019-02-07T02:58:23.298Z,20.64
2019-02-07T02:59:23.267Z,20.69
2019-02-07T03:00:23.255Z,20.68
2019-02-07T03:01:23.222Z,20.61
2019-02-07T03:02:23.220Z,20.58
2019-02-07T03:03:23.214Z,20.63
2019-02-07T03:04:23.275Z,20.68
2019-02-07T03:05:23.183Z,20.60
2019-02-07T03:06:23.194Z,20.61
2019-02-07T03:07:23.165Z,20.61
2019-02-07T03:08:23.161Z,20.50
2019-02-07T03:09:23.133Z,20.51
2019-02-07T03:10:23.133Z,20.50
2019-02-07T03:11:23.120Z,20.51
2019-02-07T03:12:23.131Z,20.46
2019-02-07T03:13:23.103Z,20.51
2019-02-07T03:14:23.095Z,20.54
2019-02-07T03:15:23.098Z,20.46
2019-02-07T03:16:23.055Z,20.46
2019-02-07T03:17:23.060Z,20.40
2019-02-07T03:18:23.065Z,20.46
2019-02-07T03:19:23.038Z,20.42
2019-02-07T03:20:23.024Z,20.44
2019-02-07T03:21:23.000Z,20.38
2019-02-07T03:22:22.994Z,20.42
2019-02-07T03:23:23.009Z,20.40
2019-02-07T03:24:22.976Z,20.44
2019-02-07T03:25:22.949Z,20.37
2019-02-07T03:26:22.954Z,20.34
2019-02-07T03:27:22.934Z,20.33
2019-02-07T03:28:22.925Z,20.41
2019-02-07T03:29:22.925Z,20.37
2019-02-07T03:30:23.158Z,20.40
2019-02-07T03:31:22.883Z,20.37
2019-02-07T03:32:23.135Z,20.42
2019-02-07T03:33:22.859Z,20.40
2019-02-07T03:34:22.866Z,20.35
2019-02-07T03:35:22.838Z,20.38
2019-02-07T03:36:22.828Z,20.38
2019-02-07T03:37:22.817Z,20.38
2019-02-07T03:38:22.815Z,20.37
2019-02-07T03:39:22.801Z,20.44
2019-02-07T03:40:22.779Z,20.46
2019-02-07T03:41:22.764Z,20.51
2019-02-07T03:42:22.755Z,20.42
2019-02-07T03:43:22.757Z,20.44
2019-02-07T03:44:22.747Z,20.46
2019-02-07T03:45:22.731Z,20.40
2019-02-07T03:46:22.706Z,20.41
2019-02-07T03:47:22.700Z,20.50
2019-02-07T03:48:22.697Z,20.50
2019-02-07T03:49:22.698Z,20.51
2019-02-07T03:50:22.688Z,20.54
2019-02-07T03:51:22.692Z,20.56
2019-02-07T03:52:22.653Z,20.48
2019-02-07T03:53:22.632Z,20.58
2019-02-07T03:54:22.637Z,20.61
2019-02-07T03:55:22.628Z,20.60
2019-02-07T03:56:22.642Z,20.48
2019-02-07T03:57:22.620Z,20.61
2019-02-07T03:58:22.592Z,20.60
2019-02-07T03:59:22.589Z,20.57
2019-02-07T04:00:22.594Z,20.57
2019-02-07T04:01:22.556Z,20.60
2019-02-07T04:02:22.551Z,20.63
2019-02-07T04:03:22.518Z,20.60
2019-02-07T04:04:22.518Z,20.61
2019-02-07T04:05:22.496Z,20.57
2019-02-07T04:06:22.519Z,20.60
2019-02-07T04:07:22.496Z,20.54
2019-02-07T04:08:22.484Z,20.57
2019-02-07T04:09:22.486Z,20.44
2019-02-07T04:10:22.453Z,20.48
2019-02-07T04:11:22.435Z,20.51
2019-02-07T04:12:22.413Z,20.50
2019-02-07T04:13:22.419Z,20.48
2019-02-07T04:14:22.448Z,20.53
2019-02-07T04:15:22.439Z,20.46
2019-02-07T04:16:22.373Z,20.48
2019-02-07T04:17:22.358Z,20.48
2019-02-07T04:18:22.346Z,20.42
2019-02-07T04:19:22.353Z,20.50
2019-02-07T04:20:22.337Z,20.48
2019-02-07T04:21:22.314Z,20.41
2019-02-07T04:22:22.423Z,20.46
2019-02-07T04:23:22.304Z,20.40
2019-02-07T04:24:22.291Z,20.37
2019-02-07T04:25:22.325Z,20.37
2019-02-07T04:26:22.255Z,20.37
2019-02-07T04:27:22.245Z,20.34
2019-02-07T04:28:22.233Z,20.33
2019-02-07T04:29:22.223Z,20.37
2019-02-07T04:30:22.252Z,20.38
2019-02-07T04:31:22.215Z,20.33
2019-02-07T04:32:22.194Z,20.34
2019-02-07T04:33:22.185Z,20.31
2019-02-07T04:34:22.163Z,20.31
2019-02-07T04:35:22.167Z,20.26
2019-02-07T04:36:22.183Z,20.25
2019-02-07T04:37:22.125Z,20.26
2019-02-07T04:38:22.115Z,20.23
2019-02-07T04:39:22.113Z,20.33
2019-02-07T04:40:22.128Z,20.30
2019-02-07T04:41:22.091Z,20.30
2019-02-07T04:42:22.068Z,20.25
2019-02-07T04:43:22.063Z,20.26
2019-02-07T04:44:22.053Z,20.27
2019-02-07T04:45:22.056Z,20.26
2019-02-07T04:46:27.032Z,20.30
2019-02-07T04:47:23.011Z,20.30
2019-02-07T04:48:22.002Z,20.31
2019-02-07T04:49:21.993Z,20.25
2019-02-07T04:50:22.002Z,20.27
2019-02-07T04:51:21.968Z,20.27
2019-02-07T04:52:21.960Z,20.27
2019-02-07T04:53:21.947Z,20.30
2019-02-07T04:54:21.933Z,20.31
2019-02-07T04:55:21.936Z,20.37
2019-02-07T04:56:21.913Z,20.31
2019-02-07T04:57:21.899Z,20.34
2019-02-07T04:58:21.895Z,20.33
2019-02-07T04:59:21.885Z,20.37
2019-02-07T05:00:21.903Z,20.38
2019-02-07T05:01:21.862Z,20.35
2019-02-07T05:02:21.852Z,20.37
2019-02-07T05:03:21.829Z,20.41
2019-02-07T05:04:21.826Z,20.37
2019-02-07T05:05:21.820Z,20.38
2019-02-07T05:06:21.807Z,20.37
2019-02-07T05:07:21.779Z,20.37
2019-02-07T05:08:21.775Z,20.27
2019-02-07T05:09:21.763Z,20.35
2019-02-07T05:10:21.805Z,20.33
2019-02-07T05:11:21.747Z,20.31
2019-02-07T05:12:21.722Z,20.25
2019-02-07T05:13:21.728Z,20.26
2019-02-07T05:14:21.700Z,20.26
2019-02-07T05:15:21.688Z,20.30
2019-02-07T05:16:21.700Z,20.23
2019-02-07T05:17:21.669Z,20.26
2019-02-07T05:18:21.678Z,20.30
2019-02-07T05:19:21.643Z,20.30
2019-02-07T05:20:21.631Z,20.27
2019-02-07T05:21:21.638Z,20.26
2019-02-07T05:22:21.621Z,20.27
2019-02-07T05:23:21.596Z,20.31
2019-02-07T05:24:21.611Z,20.25
2019-02-07T05:25:21.574Z,20.30
2019-02-07T05:26:21.575Z,20.31
2019-02-07T05:27:21.549Z,20.27
2019-02-07T05:28:21.539Z,20.25
2019-02-07T05:29:21.527Z,20.33
2019-02-07T05:30:21.524Z,20.23
2019-02-07T05:31:21.523Z,20.31
2019-02-07T05:32:21.497Z,20.30
2019-02-07T05:33:21.486Z,20.25
2019-02-07T05:34:22.372Z,20.22
2019-02-07T05:35:21.460Z,20.23
2019-02-07T05:36:21.479Z,20.30
2019-02-07T05:37:21.438Z,20.26
2019-02-07T05:38:21.452Z,20.22
2019-02-07T05:39:21.430Z,20.33
2019-02-07T05:40:21.426Z,20.31
2019-02-07T05:41:21.400Z,20.38
2019-02-07T05:42:22.691Z,20.38
2019-02-07T05:43:21.375Z,20.35
2019-02-07T05:44:21.382Z,20.37
2019-02-07T05:45:21.345Z,20.40
2019-02-07T05:46:21.333Z,20.40
2019-02-07T05:47:21.342Z,20.41
2019-02-07T05:48:21.336Z,20.41
2019-02-07T05:49:21.352Z,20.40
2019-02-07T05:50:21.292Z,20.38
2019-02-07T05:51:21.275Z,20.41
2019-02-07T05:52:21.311Z,20.42
2019-02-07T05:53:21.263Z,20.40
2019-02-07T05:54:21.240Z,20.40
2019-02-07T05:55:21.260Z,20.34
2019-02-07T05:56:21.218Z,20.37
2019-02-07T05:57:21.223Z,20.38
2019-02-07T05:58:21.195Z,20.40
2019-02-07T05:59:21.183Z,20.37
2019-02-07T06:00:21.180Z,20.31
2019-02-07T06:01:21.180Z,20.34
2019-02-07T06:02:21.171Z,20.31
2019-02-07T06:03:21.144Z,20.26
2019-02-07T06:04:23.734Z,20.31
2019-02-07T06:05:21.126Z,20.23
2019-02-07T06:06:21.135Z,20.26
2019-02-07T06:07:21.155Z,20.27
2019-02-07T06:08:21.093Z,20.25
2019-02-07T06:09:21.070Z,20.27
2019-02-07T06:10:21.093Z,20.23
2019-02-07T06:11:21.080Z,20.27
2019-02-07T06:12:21.075Z,20.26
2019-02-07T06:13:21.024Z,20.30
2019-02-07T06:14:21.012Z,20.33
2019-02-07T06:15:21.001Z,20.34
2019-02-07T06:16:21.011Z,20.40
2019-02-07T06:17:20.982Z,20.35
2019-02-07T06:18:20.988Z,20.48
2019-02-07T06:19:20.966Z,20.44
2019-02-07T06:20:20.954Z,20.46
2019-02-07T06:21:20.944Z,20.50
2019-02-07T06:22:20.931Z,20.53
2019-02-07T06:23:20.956Z,20.58
2019-02-07T06:24:20.935Z,20.60
2019-02-07T06:25:20.931Z,20.61
2019-02-07T06:26:20.886Z,20.64
2019-02-07T06:27:20.893Z,20.66
2019-02-07T06:28:20.892Z,20.64
2019-02-07T06:29:20.868Z,20.63
2019-02-07T06:30:20.895Z,20.68
2019-02-07T06:31:20.820Z,20.61
2019-02-07T06:32:20.808Z,20.76
2019-02-07T06:33:20.837Z,20.69
2019-02-07T06:34:28.648Z,20.72
2019-02-07T06:35:21.789Z,20.68
2019-02-07T06:36:20.782Z,20.64
2019-02-07T06:37:20.759Z,20.71
2019-02-07T06:38:20.757Z,20.69
2019-02-07T06:39:20.729Z,20.68
2019-02-07T06:40:20.732Z,20.64
2019-02-07T06:41:20.708Z,20.71
2019-02-07T06:42:20.703Z,20.66
2019-02-07T06:43:20.713Z,20.66
2019-02-07T06:44:20.695Z,20.64
2019-02-07T06:45:20.738Z,20.66
2019-02-07T06:46:20.691Z,20.64
2019-02-07T06:47:20.645Z,20.75
2019-02-07T06:48:20.654Z,20.66
2019-02-07T06:49:20.626Z,20.61
2019-02-07T06:50:20.662Z,20.64
2019-02-07T06:51:20.599Z,20.63
2019-02-07T06:52:20.581Z,20.63
2019-02-07T06:53:20.584Z,20.69
2019-02-07T06:54:20.598Z,20.68
2019-02-07T06:55:20.568Z,20.61
2019-02-07T06:56:20.536Z,20.64
2019-02-07T06:57:20.602Z,20.71
2019-02-07T06:58:20.514Z,20.58
2019-02-07T06:59:20.516Z,20.58
2019-02-07T07:00:20.493Z,20.58
2019-02-07T07:01:20.531Z,20.68
2019-02-07T07:02:20.496Z,20.60
2019-02-07T07:03:20.455Z,20.58
2019-02-07T07:04:20.458Z,20.56
2019-02-07T07:05:20.455Z,20.58
2019-02-07T07:06:20.438Z,20.68
2019-02-07T07:07:20.406Z,20.60
2019-02-07T07:08:20.442Z,20.57
2019-02-07T07:09:20.412Z,20.63
2019-02-07T07:10:20.386Z,20.63
2019-02-07T07:11:20.375Z,20.61
2019-02-07T07:12:20.351Z,20.54
2019-02-07T07:13:20.344Z,20.54
2019-02-07T07:14:20.400Z,20.46
2019-02-07T07:15:20.390Z,20.46
2019-02-07T07:16:20.311Z,20.46
2019-02-07T07:17:25.538Z,20.48
2019-02-07T07:18:21.287Z,20.48
2019-02-07T07:19:20.314Z,20.51
2019-02-07T07:20:20.288Z,20.58
2019-02-07T07:21:20.252Z,20.48
2019-02-07T07:22:20.236Z,20.56
2019-02-07T07:23:20.236Z,20.60
2019-02-07T07:24:20.228Z,20.61
2019-02-07T07:25:20.210Z,20.61
2019-02-07T07:26:20.191Z,20.63
2019-02-07T07:27:20.179Z,20.61
2019-02-07T07:28:20.179Z,20.58
2019-02-07T07:29:20.174Z,20.57
2019-02-07T07:30:20.147Z,20.69
2019-02-07T07:31:20.144Z,20.69
2019-02-07T07:32:20.122Z,20.60
2019-02-07T07:33:20.113Z,20.61
2019-02-07T07:34:20.142Z,20.68
2019-02-07T07:35:20.096Z,20.69
2019-02-07T07:36:20.086Z,20.66
2019-02-07T07:37:20.068Z,20.60
2019-02-07T07:38:20.055Z,20.63
2019-02-07T07:39:20.043Z,20.57
2019-02-07T07:40:20.070Z,20.61
2019-02-07T07:41:20.023Z,20.58
2019-02-07T07:42:20.012Z,20.60
2019-02-07T07:43:20.000Z,20.60
2019-02-07T07:44:19.987Z,20.58
2019-02-07T07:45:19.991Z,20.61
2019-02-07T07:46:19.978Z,20.46
2019-02-07T07:47:19.954Z,20.58
2019-02-07T07:48:19.954Z,20.51
2019-02-07T07:49:19.934Z,20.60
2019-02-07T07:50:19.935Z,20.54
2019-02-07T07:51:19.909Z,20.48
2019-02-07T07:52:19.913Z,20.54
2019-02-07T07:53:19.892Z,20.58
2019-02-07T07:54:20.519Z,20.58
2019-02-07T07:55:19.894Z,20.61
2019-02-07T07:56:19.852Z,20.57
2019-02-07T07:57:19.846Z,20.60
2019-02-07T07:58:19.845Z,20.64
2019-02-07T07:59:19.822Z,20.61
2019-02-07T08:00:19.829Z,20.68
2019-02-07T08:01:19.797Z,20.66
2019-02-07T08:02:19.787Z,20.60
2019-02-07T08:03:19.774Z,20.64
2019-02-07T08:04:19.771Z,20.68
2019-02-07T08:05:19.797Z,20.66
2019-02-07T08:06:19.740Z,20.61
2019-02-07T08:07:19.729Z,20.79
2019-02-07T08:08:19.726Z,20.72
2019-02-07T08:09:19.708Z,20.78
2019-02-07T08:10:19.706Z,20.81
2019-02-07T08:11:19.705Z,20.82
2019-02-07T08:12:19.673Z,20.79
2019-02-07T08:13:19.663Z,20.79
2019-02-07T08:14:19.656Z,20.90
2019-02-07T08:15:19.641Z,20.87
2019-02-07T08:16:19.660Z,20.91
2019-02-07T08:17:19.619Z,20.87
2019-02-07T08:18:19.606Z,20.91
2019-02-07T08:19:19.598Z,20.94
2019-02-07T08:20:19.584Z,20.93
2019-02-07T08:21:19.603Z,20.96
2019-02-07T08:22:19.563Z,20.97
2019-02-07T08:23:19.550Z,20.91
2019-02-07T08:24:19.537Z,20.93
2019-02-07T08:25:19.536Z,21.00
2019-02-07T08:26:19.530Z,20.87
2019-02-07T08:27:19.506Z,20.96
2019-02-07T08:28:19.513Z,20.85
2019-02-07T08:29:19.482Z,20.90
2019-02-07T08:30:19.481Z,20.96
2019-02-07T08:31:19.475Z,20.88
2019-02-07T08:32:19.456Z,20.88
2019-02-07T08:33:19.445Z,20.98
2019-02-07T08:34:19.426Z,20.97
2019-02-07T08:35:19.415Z,20.94
2019-02-07T08:36:19.431Z,20.93
2019-02-07T08:37:19.394Z,20.98
2019-02-07T08:38:19.409Z,20.93
2019-02-07T08:39:19.373Z,21.03
2019-02-07T08:40:19.360Z,20.96
2019-02-07T08:41:19.348Z,21.05
2019-02-07T08:42:19.352Z,21.05
2019-02-07T08:43:19.326Z,20.94
2019-02-07T08:44:19.325Z,21.00
2019-02-07T08:45:19.313Z,21.05
2019-02-07T08:46:19.310Z,21.05
2019-02-07T08:47:19.316Z,21.05
2019-02-07T08:48:19.270Z,21.01
2019-02-07T08:49:19.263Z,20.97
2019-02-07T08:50:19.270Z,21.05
2019-02-07T08:51:19.246Z,21.06
2019-02-07T08:52:19.278Z,21.05
2019-02-07T08:53:19.238Z,21.00
2019-02-07T08:54:19.206Z,21.00
2019-02-07T08:55:21.832Z,21.00
2019-02-07T08:56:19.198Z,21.05
2019-02-07T08:57:19.187Z,21.00
2019-02-07T08:58:19.160Z,20.97
2019-02-07T08:59:19.149Z,21.05
2019-02-07T09:00:19.137Z,21.00
2019-02-07T09:01:19.125Z,21.01
2019-02-07T09:02:19.142Z,21.03
2019-02-07T09:03:19.103Z,21.08
2019-02-07T09:04:19.092Z,21.05
2019-02-07T09:05:19.083Z,21.05
2019-02-07T09:06:19.072Z,21.08
2019-02-07T09:07:19.079Z,21.01
2019-02-07T09:08:19.068Z,21.01
2019-02-07T09:09:19.040Z,21.16
2019-02-07T09:10:19.031Z,21.09
2019-02-07T09:11:19.014Z,21.18
2019-02-07T09:12:19.051Z,21.15
2019-02-07T09:13:19.000Z,21.22
2019-02-07T09:14:19.091Z,21.27
2019-02-07T09:15:18.969Z,21.21
2019-02-07T09:16:18.958Z,21.22
2019-02-07T09:17:18.962Z,21.24
2019-02-07T09:18:18.944Z,21.31
2019-02-07T09:19:18.926Z,21.34
2019-02-07T09:20:18.953Z,21.37
2019-02-07T09:21:18.903Z,21.38
2019-02-07T09:22:18.905Z,21.37
2019-02-07T09:23:18.882Z,21.38
2019-02-07T09:24:18.874Z,21.37
2019-02-07T09:25:18.859Z,21.36
2019-02-07T09:26:18.866Z,21.45
2019-02-07T09:27:18.910Z,21.42
2019-02-07T09:28:18.831Z,21.40
2019-02-07T09:29:18.814Z,21.40
2019-02-07T09:30:18.814Z,21.38
2019-02-07T09:31:18.801Z,21.45
2019-02-07T09:32:18.780Z,21.42
2019-02-07T09:33:18.791Z,21.43
2019-02-07T09:34:18.759Z,21.45
2019-02-07T09:35:18.752Z,21.43
2019-02-07T09:36:18.752Z,21.40
2019-02-07T09:37:18.738Z,21.45
2019-02-07T09:38:18.726Z,21.45
2019-02-07T09:39:18.712Z,21.43
2019-02-07T09:40:18.691Z,21.48
2019-02-07T09:41:18.683Z,21.49
2019-02-07T09:42:18.669Z,21.49
2019-02-07T09:43:18.698Z,21.49
2019-02-07T09:44:18.646Z,21.45
2019-02-07T09:45:18.635Z,21.45
2019-02-07T09:46:18.635Z,21.45
2019-02-07T09:47:18.616Z,21.46
2019-02-07T09:48:21.688Z,21.46
2019-02-07T09:49:18.592Z,21.48
2019-02-07T09:50:18.579Z,21.49
2019-02-07T09:51:18.572Z,21.45
2019-02-07T09:52:18.562Z,21.45
2019-02-07T09:53:23.973Z,21.49
2019-02-07T09:54:19.534Z,21.45
2019-02-07T09:55:18.525Z,21.45
2019-02-07T09:56:18.525Z,21.42
2019-02-07T09:57:18.502Z,21.51
2019-02-07T09:58:18.531Z,21.51
2019-02-07T09:59:18.503Z,21.46
2019-02-07T10:00:18.487Z,21.49
2019-02-07T10:01:18.457Z,21.43
2019-02-07T10:02:18.447Z,21.51
2019-02-07T10:03:18.436Z,21.49
2019-02-07T10:04:18.443Z,21.48
2019-02-07T10:05:18.441Z,21.53
2019-02-07T10:06:18.402Z,21.53
2019-02-07T10:07:18.393Z,21.52
2019-02-07T10:08:18.380Z,21.51
2019-02-07T10:09:18.391Z,21.56
2019-02-07T10:10:18.359Z,21.53
2019-02-07T10:11:18.364Z,21.53
2019-02-07T10:12:18.338Z,21.59
2019-02-07T10:13:18.325Z,21.55
2019-02-07T10:14:18.332Z,21.58
2019-02-07T10:15:18.303Z,21.58
2019-02-07T10:16:18.295Z,21.68
2019-02-07T10:17:18.291Z,21.63
2019-02-07T10:18:18.271Z,21.53
2019-02-07T10:19:18.272Z,21.64
2019-02-07T10:20:18.248Z,21.53
2019-02-07T10:21:18.241Z,21.58
2019-02-07T10:22:18.229Z,21.67
2019-02-07T10:23:18.236Z,21.61
2019-02-07T10:24:18.224Z,21.63
2019-02-07T10:25:18.193Z,21.66
2019-02-07T10:26:18.205Z,21.64
2019-02-07T10:27:18.174Z,21.61
2019-02-07T10:28:18.170Z,21.67
2019-02-07T10:29:18.181Z,21.66
2019-02-07T10:30:18.141Z,21.67
2019-02-07T10:31:18.128Z,21.63
2019-02-07T10:32:18.123Z,21.68
2019-02-07T10:33:18.105Z,21.75
2019-02-07T10:34:18.820Z,21.68
2019-02-07T10:35:22.790Z,21.71
2019-02-07T10:36:20.319Z,21.67
2019-02-07T10:37:18.063Z,21.81
2019-02-07T10:38:18.050Z,21.70
2019-02-07T10:39:18.039Z,21.77
2019-02-07T10:40:18.063Z,21.74
2019-02-07T10:41:18.022Z,21.82
2019-02-07T10:42:18.010Z,21.77
2019-02-07T10:43:18.003Z,21.86
2019-02-07T10:44:17.985Z,21.85
2019-02-07T10:45:17.991Z,21.81
2019-02-07T10:46:17.971Z,21.83
2019-02-07T10:47:17.952Z,21.90
2019-02-07T10:48:17.949Z,21.89
2019-02-07T10:49:17.932Z,21.90
2019-02-07T10:50:17.943Z,21.89
2019-02-07T10:51:17.919Z,21.86
2019-02-07T10:52:17.900Z,21.91
2019-02-07T10:53:17.888Z,21.93
2019-02-07T10:54:17.879Z,21.94
2019-02-07T10:55:17.881Z,21.93
2019-02-07T10:56:17.877Z,22.04
2019-02-07T10:57:17.851Z,21.98
2019-02-07T10:58:17.834Z,21.98
2019-02-07T10:59:17.823Z,22.04
2019-02-07T11:00:17.826Z,22.02
2019-02-07T11:01:17.802Z,22.02
2019-02-07T11:02:17.804Z,21.99
2019-02-07T11:03:17.798Z,21.99
2019-02-07T11:04:17.769Z,22.05
2019-02-07T11:05:17.775Z,22.01
2019-02-07T11:06:17.749Z,22.05
2019-02-07T11:07:17.738Z,22.02
2019-02-07T11:08:17.743Z,22.08
2019-02-07T11:09:17.716Z,21.98
2019-02-07T11:10:17.725Z,22.15
2019-02-07T11:11:17.695Z,22.04
2019-02-07T11:12:17.683Z,22.04
2019-02-07T11:13:17.673Z,22.04
2019-02-07T11:14:17.669Z,21.98
2019-02-07T11:15:17.664Z,22.01
2019-02-07T11:16:17.641Z,22.04
2019-02-07T11:17:17.629Z,22.06
2019-02-07T11:18:17.625Z,21.98
2019-02-07T11:19:21.418Z,21.99
2019-02-07T11:20:17.636Z,22.02
2019-02-07T11:21:17.596Z,22.02
2019-02-07T11:22:17.580Z,21.93
2019-02-07T11:23:17.568Z,21.90
2019-02-07T11:24:17.557Z,22.02
2019-02-07T11:25:17.543Z,21.98
2019-02-07T11:26:17.559Z,21.91
2019-02-07T11:27:17.527Z,21.96
2019-02-07T11:28:17.516Z,21.89
2019-02-07T11:29:17.500Z,21.98
2019-02-07T11:30:17.490Z,21.83
2019-02-07T11:31:17.493Z,21.82
2019-02-07T11:32:17.472Z,21.90
2019-02-07T11:33:17.480Z,21.89
2019-02-07T11:34:17.449Z,21.85
2019-02-07T11:35:17.438Z,21.91
2019-02-07T11:36:17.445Z,21.82
2019-02-07T11:37:17.426Z,21.86
2019-02-07T11:38:17.410Z,21.82
2019-02-07T11:39:17.402Z,21.90
2019-02-07T11:40:17.384Z,21.82
2019-02-07T11:41:17.390Z,21.89
2019-02-07T11:42:17.363Z,21.83
2019-02-07T11:43:17.367Z,21.82
2019-02-07T11:44:17.347Z,21.86
2019-02-07T11:45:17.342Z,21.90
2019-02-07T11:46:17.335Z,21.77
2019-02-07T11:47:17.307Z,21.81
2019-02-07T11:48:17.298Z,21.81
2019-02-07T11:49:17.285Z,21.82
2019-02-07T11:50:17.299Z,21.89
2019-02-07T11:51:17.285Z,21.85
2019-02-07T11:52:17.257Z,21.83
2019-02-07T11:53:17.243Z,21.82
2019-02-07T11:54:17.232Z,21.82
2019-02-07T11:55:17.224Z,21.85
2019-02-07T11:56:17.236Z,21.85
2019-02-07T11:57:17.201Z,21.77
2019-02-07T11:58:17.191Z,21.81
2019-02-07T11:59:17.182Z,21.79
2019-02-07T12:00:17.186Z,21.85
2019-02-07T12:01:17.170Z,21.82
2019-02-07T12:02:17.177Z,21.75
2019-02-07T12:03:17.136Z,21.73
2019-02-07T12:04:17.137Z,21.81
2019-02-07T12:05:17.384Z,21.89
2019-02-07T12:06:17.135Z,21.79
2019-02-07T12:07:17.092Z,21.79
2019-02-07T12:08:17.100Z,21.81
2019-02-07T12:09:17.075Z,21.81
2019-02-07T12:10:17.059Z,21.82
2019-02-07T12:11:17.086Z,21.77
2019-02-07T12:12:17.041Z,21.74
2019-02-07T12:13:17.030Z,21.79
2019-02-07T12:14:17.042Z,21.75
2019-02-07T12:15:17.009Z,21.77
2019-02-07T12:16:16.994Z,21.70
2019-02-07T12:17:16.997Z,21.75
2019-02-07T12:18:16.975Z,21.81
2019-02-07T12:19:18.318Z,21.82
2019-02-07T12:20:16.973Z,21.82
2019-02-07T12:21:16.944Z,21.83
2019-02-07T12:22:16.949Z,21.75
2019-02-07T12:23:16.921Z,21.83
2019-02-07T12:24:16.920Z,21.82
2019-02-07T12:25:17.006Z,21.86
2019-02-07T12:26:16.950Z,21.85
2019-02-07T12:27:16.890Z,21.85
2019-02-07T12:28:16.870Z,21.89
2019-02-07T12:29:16.855Z,21.93
2019-02-07T12:30:16.846Z,21.93
2019-02-07T12:31:16.840Z,21.91
2019-02-07T12:32:16.852Z,21.94
2019-02-07T12:33:16.811Z,21.93
2019-02-07T12:34:16.808Z,22.02
2019-02-07T12:35:16.790Z,21.98
2019-02-07T12:36:16.779Z,21.98
2019-02-07T12:37:16.810Z,21.99
2019-02-07T12:38:16.757Z,22.01
2019-02-07T12:39:16.754Z,22.01
2019-02-07T12:40:16.736Z,22.02
2019-02-07T12:41:16.726Z,22.06
2019-02-07T12:42:16.715Z,22.06
2019-02-07T12:43:17.387Z,22.01
2019-02-07T12:44:16.696Z,22.02
2019-02-07T12:45:16.683Z,22.04
2019-02-07T12:46:16.682Z,21.99
2019-02-07T12:47:16.753Z,21.99
2019-02-07T12:48:16.698Z,21.99
2019-02-07T12:49:16.662Z,21.99
2019-02-07T12:50:16.630Z,21.93
2019-02-07T12:51:16.771Z,21.93
2019-02-07T12:52:16.635Z,21.94